Pasinler, Turkey
Current Conditions -  °F | °C
As of 4:20 PM on Saturday 25 Oct 2014 (Local Time) from LTCE Reporting Station
Broken Clouds Broken Clouds  
Wind Chill: 14°   Ceiling: 8000
Heat Index: 14°   Visibility: 6mi
Dew Point:   Wind: 16mph
Humidity: 41%   Direction: 260°W
Pressure: 30.06"   Gusts: NA
Location:  39.99°N, 41.69°E
Report Text: LTCE 251320Z 26014KT 9999 SCT030 BKN080 14/01 Q1018 NOSIG
Loading
Personal Weather Stations






























Interactive Weather Map
Tropical Storm Tracking
New forecast layout! Learn more

10-Day Weather Forecast

Advertisements
Track Severe Weather on mobile